sensor_id;sensor_type;location;lat;lon;timestamp;P1;durP1;ratioP1;P2;durP2;ratioP2
10343;SDS011;5217;43.960;10.954;2024-01-30T00:00:00;5.40;;;4.77;;
10343;SDS011;5217;43.960;10.954;2024-01-30T00:02:30;5.10;;;4.57;;
10343;SDS011;5217;43.960;10.954;2024-01-30T00:04:59;5.60;;;5.00;;
10343;SDS011;5217;43.960;10.954;2024-01-30T00:07:30;5.33;;;4.80;;
10343;SDS011;5217;43.960;10.954;2024-01-30T00:09:58;5.97;;;5.03;;
10343;SDS011;5217;43.960;10.954;2024-01-30T00:12:28;5.23;;;4.73;;
10343;SDS011;5217;43.960;10.954;2024-01-30T00:15:00;5.90;;;5.30;;
10343;SDS011;5217;43.960;10.954;2024-01-30T00:17:31;6.40;;;4.83;;
10343;SDS011;5217;43.960;10.954;2024-01-30T00:19:59;5.57;;;5.00;;
10343;SDS011;5217;43.960;10.954;2024-01-30T00:22:27;6.57;;;5.80;;
10343;SDS011;5217;43.960;10.954;2024-01-30T00:24:56;6.10;;;5.40;;
10343;SDS011;5217;43.960;10.954;2024-01-30T00:27:25;6.33;;;5.73;;
10343;SDS011;5217;43.960;10.954;2024-01-30T00:29:54;6.33;;;5.40;;
10343;SDS011;5217;43.960;10.954;2024-01-30T00:32:24;5.87;;;5.23;;
10343;SDS011;5217;43.960;10.954;2024-01-30T00:34:52;6.23;;;5.63;;
10343;SDS011;5217;43.960;10.954;2024-01-30T00:37:21;6.43;;;5.60;;
10343;SDS011;5217;43.960;10.954;2024-01-30T00:39:49;5.73;;;5.20;;
10343;SDS011;5217;43.960;10.954;2024-01-30T00:42:18;5.80;;;5.20;;
10343;SDS011;5217;43.960;10.954;2024-01-30T00:44:46;5.87;;;5.27;;
10343;SDS011;5217;43.960;10.954;2024-01-30T00:47:15;6.40;;;5.70;;
10343;SDS011;5217;43.960;10.954;2024-01-30T00:49:44;5.73;;;5.13;;
10343;SDS011;5217;43.960;10.954;2024-01-30T00:52:13;5.03;;;4.53;;
10343;SDS011;5217;43.960;10.954;2024-01-30T00:54:42;5.23;;;4.50;;
10343;SDS011;5217;43.960;10.954;2024-01-30T00:57:10;5.57;;;4.83;;
10343;SDS011;5217;43.960;10.954;2024-01-30T00:59:39;5.10;;;4.50;;
10343;SDS011;5217;43.960;10.954;2024-01-30T01:02:08;4.67;;;4.23;;
10343;SDS011;5217;43.960;10.954;2024-01-30T01:04:36;5.70;;;4.90;;
10343;SDS011;5217;43.960;10.954;2024-01-30T01:07:06;5.50;;;4.97;;
10343;SDS011;5217;43.960;10.954;2024-01-30T01:09:35;6.07;;;4.97;;
10343;SDS011;5217;43.960;10.954;2024-01-30T01:12:04;6.10;;;5.03;;
10343;SDS011;5217;43.960;10.954;2024-01-30T01:14:33;6.70;;;5.33;;
10343;SDS011;5217;43.960;10.954;2024-01-30T01:17:02;5.03;;;4.53;;
10343;SDS011;5217;43.960;10.954;2024-01-30T01:19:31;5.93;;;4.93;;
10343;SDS011;5217;43.960;10.954;2024-01-30T01:22:00;4.80;;;4.30;;
10343;SDS011;5217;43.960;10.954;2024-01-30T01:24:31;5.20;;;4.30;;
10343;SDS011;5217;43.960;10.954;2024-01-30T01:26:59;4.93;;;4.40;;
10343;SDS011;5217;43.960;10.954;2024-01-30T01:29:28;4.77;;;4.27;;
10343;SDS011;5217;43.960;10.954;2024-01-30T01:31:56;5.57;;;4.57;;
10343;SDS011;5217;43.960;10.954;2024-01-30T01:34:25;5.13;;;4.60;;
10343;SDS011;5217;43.960;10.954;2024-01-30T01:36:56;5.57;;;4.60;;
10343;SDS011;5217;43.960;10.954;2024-01-30T01:39:25;5.27;;;4.63;;
10343;SDS011;5217;43.960;10.954;2024-01-30T01:41:55;5.50;;;4.20;;
10343;SDS011;5217;43.960;10.954;2024-01-30T01:44:23;5.43;;;4.83;;
10343;SDS011;5217;43.960;10.954;2024-01-30T01:46:52;5.40;;;4.90;;
10343;SDS011;5217;43.960;10.954;2024-01-30T01:49:22;4.97;;;4.47;;
10343;SDS011;5217;43.960;10.954;2024-01-30T01:51:54;4.90;;;4.40;;
10343;SDS011;5217;43.960;10.954;2024-01-30T01:54:24;5.00;;;4.50;;
10343;SDS011;5217;43.960;10.954;2024-01-30T01:56:56;5.50;;;4.93;;
10343;SDS011;5217;43.960;10.954;2024-01-30T01:59:24;5.17;;;4.60;;
10343;SDS011;5217;43.960;10.954;2024-01-30T02:01:54;4.97;;;4.47;;
10343;SDS011;5217;43.960;10.954;2024-01-30T02:04:24;7.07;;;5.00;;
10343;SDS011;5217;43.960;10.954;2024-01-30T02:06:52;5.60;;;4.50;;
10343;SDS011;5217;43.960;10.954;2024-01-30T02:09:21;5.57;;;4.73;;
10343;SDS011;5217;43.960;10.954;2024-01-30T02:11:50;5.27;;;4.77;;
10343;SDS011;5217;43.960;10.954;2024-01-30T02:14:20;5.90;;;4.90;;
10343;SDS011;5217;43.960;10.954;2024-01-30T02:16:49;4.97;;;4.47;;
10343;SDS011;5217;43.960;10.954;2024-01-30T02:19:17;4.80;;;4.23;;
10343;SDS011;5217;43.960;10.954;2024-01-30T02:21:48;5.83;;;4.83;;
10343;SDS011;5217;43.960;10.954;2024-01-30T02:24:17;5.53;;;4.67;;
10343;SDS011;5217;43.960;10.954;2024-01-30T02:26:46;5.30;;;4.80;;
10343;SDS011;5217;43.960;10.954;2024-01-30T02:29:14;5.40;;;4.90;;
10343;SDS011;5217;43.960;10.954;2024-01-30T02:31:43;5.80;;;5.20;;
10343;SDS011;5217;43.960;10.954;2024-01-30T02:34:12;5.43;;;4.93;;
10343;SDS011;5217;43.960;10.954;2024-01-30T02:36:42;5.13;;;4.63;;
10343;SDS011;5217;43.960;10.954;2024-01-30T02:39:12;6.27;;;4.70;;
10343;SDS011;5217;43.960;10.954;2024-01-30T02:41:41;5.40;;;4.57;;
10343;SDS011;5217;43.960;10.954;2024-01-30T02:44:09;5.53;;;4.30;;
10343;SDS011;5217;43.960;10.954;2024-01-30T02:46:38;5.23;;;4.73;;
10343;SDS011;5217;43.960;10.954;2024-01-30T02:49:06;5.53;;;4.77;;
10343;SDS011;5217;43.960;10.954;2024-01-30T02:51:35;5.30;;;4.80;;
10343;SDS011;5217;43.960;10.954;2024-01-30T02:54:04;5.63;;;5.03;;
10343;SDS011;5217;43.960;10.954;2024-01-30T02:56:34;6.00;;;5.23;;
10343;SDS011;5217;43.960;10.954;2024-01-30T02:59:03;5.80;;;5.00;;
10343;SDS011;5217;43.960;10.954;2024-01-30T03:01:31;5.10;;;4.60;;
10343;SDS011;5217;43.960;10.954;2024-01-30T03:04:00;4.80;;;4.40;;
10343;SDS011;5217;43.960;10.954;2024-01-30T03:06:29;5.70;;;4.80;;
10343;SDS011;5217;43.960;10.954;2024-01-30T03:08:57;4.90;;;4.40;;
10343;SDS011;5217;43.960;10.954;2024-01-30T03:11:26;4.87;;;4.37;;
10343;SDS011;5217;43.960;10.954;2024-01-30T03:13:56;5.87;;;4.37;;
10343;SDS011;5217;43.960;10.954;2024-01-30T03:16:29;4.83;;;4.33;;
10343;SDS011;5217;43.960;10.954;2024-01-30T03:18:57;4.80;;;4.30;;
10343;SDS011;5217;43.960;10.954;2024-01-30T03:21:27;5.30;;;4.80;;
10343;SDS011;5217;43.960;10.954;2024-01-30T03:23:56;4.83;;;4.43;;
10343;SDS011;5217;43.960;10.954;2024-01-30T03:26:24;5.17;;;4.23;;
10343;SDS011;5217;43.960;10.954;2024-01-30T03:28:53;4.50;;;3.90;;
10343;SDS011;5217;43.960;10.954;2024-01-30T03:31:23;5.40;;;4.70;;
10343;SDS011;5217;43.960;10.954;2024-01-30T03:33:52;5.90;;;4.60;;
10343;SDS011;5217;43.960;10.954;2024-01-30T03:36:20;5.67;;;5.10;;
10343;SDS011;5217;43.960;10.954;2024-01-30T03:38:49;7.20;;;5.80;;
10343;SDS011;5217;43.960;10.954;2024-01-30T03:41:18;5.50;;;5.00;;
10343;SDS011;5217;43.960;10.954;2024-01-30T03:43:47;5.37;;;4.60;;
10343;SDS011;5217;43.960;10.954;2024-01-30T03:46:15;6.20;;;5.60;;
10343;SDS011;5217;43.960;10.954;2024-01-30T03:48:45;6.33;;;5.70;;
10343;SDS011;5217;43.960;10.954;2024-01-30T03:51:14;6.07;;;5.40;;
10343;SDS011;5217;43.960;10.954;2024-01-30T03:53:43;5.03;;;4.53;;
10343;SDS011;5217;43.960;10.954;2024-01-30T03:56:12;5.00;;;4.50;;
10343;SDS011;5217;43.960;10.954;2024-01-30T03:58:41;5.17;;;4.57;;
10343;SDS011;5217;43.960;10.954;2024-01-30T04:01:12;4.97;;;4.50;;
10343;SDS011;5217;43.960;10.954;2024-01-30T04:03:42;6.57;;;4.47;;
10343;SDS011;5217;43.960;10.954;2024-01-30T04:06:12;5.30;;;4.80;;
10343;SDS011;5217;43.960;10.954;2024-01-30T04:08:41;4.73;;;4.20;;
10343;SDS011;5217;43.960;10.954;2024-01-30T04:11:09;5.27;;;4.47;;
10343;SDS011;5217;43.960;10.954;2024-01-30T04:13:38;4.80;;;4.20;;
10343;SDS011;5217;43.960;10.954;2024-01-30T04:16:18;5.27;;;4.10;;
10343;SDS011;5217;43.960;10.954;2024-01-30T04:18:48;4.50;;;4.10;;
10343;SDS011;5217;43.960;10.954;2024-01-30T04:21:20;4.37;;;3.97;;
10343;SDS011;5217;43.960;10.954;2024-01-30T04:23:50;5.80;;;4.33;;
10343;SDS011;5217;43.960;10.954;2024-01-30T04:26:19;4.67;;;4.20;;
10343;SDS011;5217;43.960;10.954;2024-01-30T04:28:48;4.40;;;4.00;;
10343;SDS011;5217;43.960;10.954;2024-01-30T04:31:16;5.47;;;3.90;;
10343;SDS011;5217;43.960;10.954;2024-01-30T04:33:45;4.23;;;3.83;;
10343;SDS011;5217;43.960;10.954;2024-01-30T04:36:14;4.63;;;4.20;;
10343;SDS011;5217;43.960;10.954;2024-01-30T04:38:44;4.90;;;4.40;;
10343;SDS011;5217;43.960;10.954;2024-01-30T04:41:13;5.30;;;4.80;;
10343;SDS011;5217;43.960;10.954;2024-01-30T04:43:41;6.10;;;4.60;;
10343;SDS011;5217;43.960;10.954;2024-01-30T04:46:10;5.20;;;4.70;;
10343;SDS011;5217;43.960;10.954;2024-01-30T04:48:39;4.87;;;4.40;;
10343;SDS011;5217;43.960;10.954;2024-01-30T04:51:07;4.97;;;4.10;;
10343;SDS011;5217;43.960;10.954;2024-01-30T04:53:36;5.30;;;4.37;;
10343;SDS011;5217;43.960;10.954;2024-01-30T04:56:07;4.40;;;4.00;;
10343;SDS011;5217;43.960;10.954;2024-01-30T04:58:36;4.57;;;4.17;;
10343;SDS011;5217;43.960;10.954;2024-01-30T05:01:05;5.50;;;4.30;;
10343;SDS011;5217;43.960;10.954;2024-01-30T05:03:33;4.40;;;4.00;;
10343;SDS011;5217;43.960;10.954;2024-01-30T05:06:02;5.10;;;4.60;;
10343;SDS011;5217;43.960;10.954;2024-01-30T05:08:31;5.67;;;5.10;;
10343;SDS011;5217;43.960;10.954;2024-01-30T05:11:00;5.17;;;4.67;;
10343;SDS011;5217;43.960;10.954;2024-01-30T05:13:31;5.07;;;4.57;;
10343;SDS011;5217;43.960;10.954;2024-01-30T05:16:01;5.97;;;5.37;;
10343;SDS011;5217;43.960;10.954;2024-01-30T05:18:31;5.87;;;5.23;;
10343;SDS011;5217;43.960;10.954;2024-01-30T05:21:00;5.90;;;5.30;;
10343;SDS011;5217;43.960;10.954;2024-01-30T05:23:30;7.10;;;5.50;;
10343;SDS011;5217;43.960;10.954;2024-01-30T05:25:59;5.87;;;5.27;;
10343;SDS011;5217;43.960;10.954;2024-01-30T05:28:28;5.73;;;5.13;;
10343;SDS011;5217;43.960;10.954;2024-01-30T05:30:58;5.87;;;5.17;;
10343;SDS011;5217;43.960;10.954;2024-01-30T05:33:27;5.80;;;5.20;;
10343;SDS011;5217;43.960;10.954;2024-01-30T05:35:56;5.77;;;5.17;;
10343;SDS011;5217;43.960;10.954;2024-01-30T05:38:25;7.40;;;5.40;;
10343;SDS011;5217;43.960;10.954;2024-01-30T05:40:53;6.90;;;5.10;;
10343;SDS011;5217;43.960;10.954;2024-01-30T05:43:24;6.03;;;5.00;;
10343;SDS011;5217;43.960;10.954;2024-01-30T05:45:53;6.07;;;5.47;;
10343;SDS011;5217;43.960;10.954;2024-01-30T05:48:23;5.67;;;5.17;;
10343;SDS011;5217;43.960;10.954;2024-01-30T05:50:51;6.37;;;5.40;;
10343;SDS011;5217;43.960;10.954;2024-01-30T05:53:20;6.17;;;5.57;;
10343;SDS011;5217;43.960;10.954;2024-01-30T05:55:49;8.33;;;5.50;;
10343;SDS011;5217;43.960;10.954;2024-01-30T05:58:18;5.47;;;4.77;;
10343;SDS011;5217;43.960;10.954;2024-01-30T06:00:46;6.07;;;5.40;;
10343;SDS011;5217;43.960;10.954;2024-01-30T06:03:15;6.07;;;5.40;;
10343;SDS011;5217;43.960;10.954;2024-01-30T06:05:45;6.10;;;5.17;;
10343;SDS011;5217;43.960;10.954;2024-01-30T06:08:13;7.80;;;5.60;;
10343;SDS011;5217;43.960;10.954;2024-01-30T06:10:42;7.40;;;5.10;;
10343;SDS011;5217;43.960;10.954;2024-01-30T06:13:10;6.00;;;5.40;;
10343;SDS011;5217;43.960;10.954;2024-01-30T06:15:39;6.83;;;5.10;;
10343;SDS011;5217;43.960;10.954;2024-01-30T06:18:08;5.40;;;4.90;;
10343;SDS011;5217;43.960;10.954;2024-01-30T06:20:37;5.80;;;5.20;;
10343;SDS011;5217;43.960;10.954;2024-01-30T06:23:07;5.37;;;4.87;;
10343;SDS011;5217;43.960;10.954;2024-01-30T06:25:35;5.90;;;5.00;;
10343;SDS011;5217;43.960;10.954;2024-01-30T06:28:05;6.20;;;5.17;;
10343;SDS011;5217;43.960;10.954;2024-01-30T06:30:34;6.30;;;5.70;;
10343;SDS011;5217;43.960;10.954;2024-01-30T06:33:02;6.47;;;5.87;;
10343;SDS011;5217;43.960;10.954;2024-01-30T06:35:31;9.90;;;6.23;;
10343;SDS011;5217;43.960;10.954;2024-01-30T06:38:01;7.00;;;6.23;;
10343;SDS011;5217;43.960;10.954;2024-01-30T06:40:31;8.00;;;7.07;;
10343;SDS011;5217;43.960;10.954;2024-01-30T06:43:00;8.80;;;6.97;;
10343;SDS011;5217;43.960;10.954;2024-01-30T06:45:28;8.57;;;7.13;;
10343;SDS011;5217;43.960;10.954;2024-01-30T06:47:56;8.50;;;7.57;;
10343;SDS011;5217;43.960;10.954;2024-01-30T06:50:25;9.20;;;7.73;;
10343;SDS011;5217;43.960;10.954;2024-01-30T06:52:54;9.83;;;7.43;;
10343;SDS011;5217;43.960;10.954;2024-01-30T06:55:22;9.23;;;7.57;;
10343;SDS011;5217;43.960;10.954;2024-01-30T06:57:52;10.17;;;7.50;;
10343;SDS011;5217;43.960;10.954;2024-01-30T07:00:20;10.50;;;7.33;;
10343;SDS011;5217;43.960;10.954;2024-01-30T07:02:50;10.10;;;8.03;;
10343;SDS011;5217;43.960;10.954;2024-01-30T07:05:18;9.37;;;8.20;;
10343;SDS011;5217;43.960;10.954;2024-01-30T07:07:48;9.50;;;8.60;;
10343;SDS011;5217;43.960;10.954;2024-01-30T07:10:17;11.43;;;9.20;;
10343;SDS011;5217;43.960;10.954;2024-01-30T07:12:45;16.80;;;15.20;;
10343;SDS011;5217;43.960;10.954;2024-01-30T07:15:15;15.90;;;14.30;;
10343;SDS011;5217;43.960;10.954;2024-01-30T07:17:46;13.00;;;11.53;;
10343;SDS011;5217;43.960;10.954;2024-01-30T07:20:15;11.37;;;10.17;;
10343;SDS011;5217;43.960;10.954;2024-01-30T07:22:47;15.63;;;11.85;;
10343;SDS011;5217;43.960;10.954;2024-01-30T07:25:15;28.43;;;18.10;;
10343;SDS011;5217;43.960;10.954;2024-01-30T07:27:44;26.63;;;17.63;;
10343;SDS011;5217;43.960;10.954;2024-01-30T07:30:12;24.30;;;18.27;;
10343;SDS011;5217;43.960;10.954;2024-01-30T07:32:45;21.63;;;16.30;;
10343;SDS011;5217;43.960;10.954;2024-01-30T07:35:14;21.17;;;12.97;;
10343;SDS011;5217;43.960;10.954;2024-01-30T07:37:43;18.40;;;14.00;;
10343;SDS011;5217;43.960;10.954;2024-01-30T07:40:11;19.67;;;15.00;;
10343;SDS011;5217;43.960;10.954;2024-01-30T07:42:40;18.10;;;14.33;;
10343;SDS011;5217;43.960;10.954;2024-01-30T07:45:12;20.17;;;15.23;;
10343;SDS011;5217;43.960;10.954;2024-01-30T07:47:42;18.37;;;14.17;;
10343;SDS011;5217;43.960;10.954;2024-01-30T07:50:11;16.23;;;13.17;;
10343;SDS011;5217;43.960;10.954;2024-01-30T07:52:40;15.70;;;12.90;;
10343;SDS011;5217;43.960;10.954;2024-01-30T07:55:09;16.93;;;14.23;;
10343;SDS011;5217;43.960;10.954;2024-01-30T07:57:39;17.27;;;14.17;;
10343;SDS011;5217;43.960;10.954;2024-01-30T08:00:08;17.27;;;13.07;;
10343;SDS011;5217;43.960;10.954;2024-01-30T08:02:38;15.73;;;11.90;;
10343;SDS011;5217;43.960;10.954;2024-01-30T08:05:06;13.87;;;11.87;;
10343;SDS011;5217;43.960;10.954;2024-01-30T08:07:39;13.63;;;11.83;;
10343;SDS011;5217;43.960;10.954;2024-01-30T08:10:08;13.07;;;10.40;;
10343;SDS011;5217;43.960;10.954;2024-01-30T08:12:39;11.60;;;10.40;;
10343;SDS011;5217;43.960;10.954;2024-01-30T08:15:08;14.40;;;10.53;;
10343;SDS011;5217;43.960;10.954;2024-01-30T08:17:37;13.30;;;11.93;;
10343;SDS011;5217;43.960;10.954;2024-01-30T08:20:06;16.13;;;14.37;;
10343;SDS011;5217;43.960;10.954;2024-01-30T08:22:39;18.30;;;16.30;;
10343;SDS011;5217;43.960;10.954;2024-01-30T08:25:08;15.97;;;14.27;;
10343;SDS011;5217;43.960;10.954;2024-01-30T08:27:37;15.13;;;13.53;;
10343;SDS011;5217;43.960;10.954;2024-01-30T08:30:06;16.20;;;14.50;;
10343;SDS011;5217;43.960;10.954;2024-01-30T08:32:36;14.40;;;12.90;;
10343;SDS011;5217;43.960;10.954;2024-01-30T08:35:05;13.07;;;11.77;;
10343;SDS011;5217;43.960;10.954;2024-01-30T08:37:35;13.30;;;11.13;;
10343;SDS011;5217;43.960;10.954;2024-01-30T08:40:08;13.57;;;12.13;;
10343;SDS011;5217;43.960;10.954;2024-01-30T08:42:38;14.17;;;12.77;;
10343;SDS011;5217;43.960;10.954;2024-01-30T08:45:07;12.37;;;11.13;;
10343;SDS011;5217;43.960;10.954;2024-01-30T08:47:36;14.13;;;12.60;;
10343;SDS011;5217;43.960;10.954;2024-01-30T08:50:05;15.10;;;13.50;;
10343;SDS011;5217;43.960;10.954;2024-01-30T08:52:35;15.70;;;13.97;;
10343;SDS011;5217;43.960;10.954;2024-01-30T08:55:03;15.23;;;13.53;;
10343;SDS011;5217;43.960;10.954;2024-01-30T08:57:34;15.90;;;14.30;;
10343;SDS011;5217;43.960;10.954;2024-01-30T09:00:02;16.13;;;14.43;;
10343;SDS011;5217;43.960;10.954;2024-01-30T09:02:33;16.77;;;14.23;;
10343;SDS011;5217;43.960;10.954;2024-01-30T09:05:02;16.80;;;15.00;;
10343;SDS011;5217;43.960;10.954;2024-01-30T09:07:31;14.70;;;13.20;;
10343;SDS011;5217;43.960;10.954;2024-01-30T09:10:00;15.57;;;13.73;;
10343;SDS011;5217;43.960;10.954;2024-01-30T09:12:28;16.53;;;14.63;;
10343;SDS011;5217;43.960;10.954;2024-01-30T09:14:58;17.47;;;14.43;;
10343;SDS011;5217;43.960;10.954;2024-01-30T09:17:27;16.87;;;14.87;;
10343;SDS011;5217;43.960;10.954;2024-01-30T09:19:55;18.17;;;16.30;;
10343;SDS011;5217;43.960;10.954;2024-01-30T09:22:23;17.07;;;15.27;;
10343;SDS011;5217;43.960;10.954;2024-01-30T09:24:52;18.87;;;16.47;;
10343;SDS011;5217;43.960;10.954;2024-01-30T09:27:20;18.17;;;16.33;;
10343;SDS011;5217;43.960;10.954;2024-01-30T09:29:49;18.07;;;16.17;;
10343;SDS011;5217;43.960;10.954;2024-01-30T09:32:19;19.10;;;17.20;;
10343;SDS011;5217;43.960;10.954;2024-01-30T09:34:47;19.10;;;17.00;;
10343;SDS011;5217;43.960;10.954;2024-01-30T09:37:16;21.20;;;17.67;;
10343;SDS011;5217;43.960;10.954;2024-01-30T09:39:45;18.30;;;16.40;;
10343;SDS011;5217;43.960;10.954;2024-01-30T09:42:18;19.30;;;17.03;;
10343;SDS011;5217;43.960;10.954;2024-01-30T09:44:54;18.30;;;16.30;;
10343;SDS011;5217;43.960;10.954;2024-01-30T09:47:25;19.10;;;17.10;;
10343;SDS011;5217;43.960;10.954;2024-01-30T09:49:54;17.83;;;15.93;;
10343;SDS011;5217;43.960;10.954;2024-01-30T09:52:24;19.37;;;16.80;;
10343;SDS011;5217;43.960;10.954;2024-01-30T09:54:53;19.30;;;17.30;;
10343;SDS011;5217;43.960;10.954;2024-01-30T09:57:21;20.63;;;17.03;;
10343;SDS011;5217;43.960;10.954;2024-01-30T09:59:50;20.97;;;17.90;;
10343;SDS011;5217;43.960;10.954;2024-01-30T10:02:20;18.63;;;16.77;;
10343;SDS011;5217;43.960;10.954;2024-01-30T10:04:50;19.67;;;17.67;;
10343;SDS011;5217;43.960;10.954;2024-01-30T10:07:19;21.63;;;18.57;;
10343;SDS011;5217;43.960;10.954;2024-01-30T10:09:48;19.77;;;17.77;;
10343;SDS011;5217;43.960;10.954;2024-01-30T10:12:17;20.50;;;17.93;;
10343;SDS011;5217;43.960;10.954;2024-01-30T10:14:45;22.20;;;19.80;;
10343;SDS011;5217;43.960;10.954;2024-01-30T10:17:14;21.93;;;19.13;;
10343;SDS011;5217;43.960;10.954;2024-01-30T10:19:55;21.77;;;19.50;;
10343;SDS011;5217;43.960;10.954;2024-01-30T10:22:25;23.23;;;19.77;;
10343;SDS011;5217;43.960;10.954;2024-01-30T10:24:54;22.17;;;19.87;;
10343;SDS011;5217;43.960;10.954;2024-01-30T10:27:24;21.20;;;19.00;;
10343;SDS011;5217;43.960;10.954;2024-01-30T10:29:54;22.20;;;19.30;;
10343;SDS011;5217;43.960;10.954;2024-01-30T10:32:22;21.93;;;18.80;;
10343;SDS011;5217;43.960;10.954;2024-01-30T10:34:50;22.00;;;19.87;;
10343;SDS011;5217;43.960;10.954;2024-01-30T10:37:21;22.47;;;20.10;;
10343;SDS011;5217;43.960;10.954;2024-01-30T10:39:53;23.27;;;20.80;;
10343;SDS011;5217;43.960;10.954;2024-01-30T10:42:25;23.60;;;19.97;;
10343;SDS011;5217;43.960;10.954;2024-01-30T10:44:57;21.80;;;19.43;;
10343;SDS011;5217;43.960;10.954;2024-01-30T10:47:30;21.90;;;18.87;;
10343;SDS011;5217;43.960;10.954;2024-01-30T10:50:00;21.20;;;18.90;;
10343;SDS011;5217;43.960;10.954;2024-01-30T10:52:32;21.60;;;19.20;;
10343;SDS011;5217;43.960;10.954;2024-01-30T10:55:01;20.63;;;18.50;;
10343;SDS011;5217;43.960;10.954;2024-01-30T10:57:34;19.88;;;17.85;;
10343;SDS011;5217;43.960;10.954;2024-01-30T11:00:04;20.35;;;17.88;;
10343;SDS011;5217;43.960;10.954;2024-01-30T11:02:37;20.92;;;17.95;;
10343;SDS011;5217;43.960;10.954;2024-01-30T11:05:07;19.33;;;17.15;;
10343;SDS011;5217;43.960;10.954;2024-01-30T11:07:38;17.83;;;15.95;;
10343;SDS011;5217;43.960;10.954;2024-01-30T11:10:08;16.63;;;14.93;;
10343;SDS011;5217;43.960;10.954;2024-01-30T11:12:40;17.20;;;15.40;;
10343;SDS011;5217;43.960;10.954;2024-01-30T11:15:11;16.30;;;14.70;;
10343;SDS011;5217;43.960;10.954;2024-01-30T11:17:44;15.32;;;13.77;;
10343;SDS011;5217;43.960;10.954;2024-01-30T11:20:19;15.40;;;13.80;;
10343;SDS011;5217;43.960;10.954;2024-01-30T11:22:50;15.63;;;13.90;;
10343;SDS011;5217;43.960;10.954;2024-01-30T11:25:20;14.98;;;13.52;;
10343;SDS011;5217;43.960;10.954;2024-01-30T11:27:49;16.02;;;14.30;;
10343;SDS011;5217;43.960;10.954;2024-01-30T11:30:22;14.63;;;13.13;;
10343;SDS011;5217;43.960;10.954;2024-01-30T11:32:58;13.65;;;12.35;;
10343;SDS011;5217;43.960;10.954;2024-01-30T11:35:33;13.05;;;11.70;;
10343;SDS011;5217;43.960;10.954;2024-01-30T11:38:04;14.07;;;12.68;;
10343;SDS011;5217;43.960;10.954;2024-01-30T11:40:33;13.00;;;11.70;;
10343;SDS011;5217;43.960;10.954;2024-01-30T11:43:03;14.70;;;12.43;;
10343;SDS011;5217;43.960;10.954;2024-01-30T11:45:33;13.73;;;12.32;;
10343;SDS011;5217;43.960;10.954;2024-01-30T11:48:02;14.27;;;12.77;;
10343;SDS011;5217;43.960;10.954;2024-01-30T11:50:32;12.43;;;11.15;;
10343;SDS011;5217;43.960;10.954;2024-01-30T11:53:01;13.32;;;11.93;;
10343;SDS011;5217;43.960;10.954;2024-01-30T11:55:32;13.40;;;12.10;;
10343;SDS011;5217;43.960;10.954;2024-01-30T11:58:02;12.95;;;11.65;;
10343;SDS011;5217;43.960;10.954;2024-01-30T12:00:32;12.60;;;11.23;;
10343;SDS011;5217;43.960;10.954;2024-01-30T12:03:01;11.48;;;10.27;;
10343;SDS011;5217;43.960;10.954;2024-01-30T12:05:32;11.30;;;10.20;;
10343;SDS011;5217;43.960;10.954;2024-01-30T12:08:04;10.50;;;9.43;;
10343;SDS011;5217;43.960;10.954;2024-01-30T12:10:33;10.75;;;9.68;;
10343;SDS011;5217;43.960;10.954;2024-01-30T12:13:02;10.98;;;9.85;;
10343;SDS011;5217;43.960;10.954;2024-01-30T12:15:31;10.70;;;9.30;;
10343;SDS011;5217;43.960;10.954;2024-01-30T12:18:08;10.55;;;9.45;;
10343;SDS011;5217;43.960;10.954;2024-01-30T12:20:37;10.98;;;9.15;;
10343;SDS011;5217;43.960;10.954;2024-01-30T12:23:07;8.90;;;8.00;;
10343;SDS011;5217;43.960;10.954;2024-01-30T12:25:36;7.97;;;7.25;;
10343;SDS011;5217;43.960;10.954;2024-01-30T12:28:05;8.55;;;7.57;;
10343;SDS011;5217;43.960;10.954;2024-01-30T12:30:34;8.25;;;7.45;;
10343;SDS011;5217;43.960;10.954;2024-01-30T12:33:03;6.90;;;6.20;;
10343;SDS011;5217;43.960;10.954;2024-01-30T12:35:35;7.93;;;5.93;;
10343;SDS011;5217;43.960;10.954;2024-01-30T12:38:15;7.50;;;6.80;;
10343;SDS011;5217;43.960;10.954;2024-01-30T12:40:44;8.93;;;7.70;;
10343;SDS011;5217;43.960;10.954;2024-01-30T12:43:13;8.80;;;7.90;;
10343;SDS011;5217;43.960;10.954;2024-01-30T12:45:57;10.82;;;8.23;;
10343;SDS011;5217;43.960;10.954;2024-01-30T12:48:26;8.50;;;6.95;;
10343;SDS011;5217;43.960;10.954;2024-01-30T12:50:56;8.50;;;7.20;;
10343;SDS011;5217;43.960;10.954;2024-01-30T12:53:26;7.72;;;6.88;;
10343;SDS011;5217;43.960;10.954;2024-01-30T12:55:55;7.95;;;7.18;;
10343;SDS011;5217;43.960;10.954;2024-01-30T12:58:24;8.13;;;7.32;;
10343;SDS011;5217;43.960;10.954;2024-01-30T13:00:52;8.40;;;7.60;;
10343;SDS011;5217;43.960;10.954;2024-01-30T13:03:22;10.02;;;7.15;;
10343;SDS011;5217;43.960;10.954;2024-01-30T13:05:50;8.27;;;7.40;;
10343;SDS011;5217;43.960;10.954;2024-01-30T13:08:19;8.57;;;7.20;;
10343;SDS011;5217;43.960;10.954;2024-01-30T13:10:49;9.85;;;7.85;;
10343;SDS011;5217;43.960;10.954;2024-01-30T13:13:17;8.25;;;7.45;;
10343;SDS011;5217;43.960;10.954;2024-01-30T13:15:46;8.15;;;7.35;;
10343;SDS011;5217;43.960;10.954;2024-01-30T13:18:15;7.43;;;6.72;;
10343;SDS011;5217;43.960;10.954;2024-01-30T13:20:44;7.88;;;6.90;;
10343;SDS011;5217;43.960;10.954;2024-01-30T13:23:12;10.68;;;9.60;;
10343;SDS011;5217;43.960;10.954;2024-01-30T13:25:41;9.52;;;8.57;;
10343;SDS011;5217;43.960;10.954;2024-01-30T13:28:10;8.80;;;7.82;;
10343;SDS011;5217;43.960;10.954;2024-01-30T13:30:39;8.52;;;7.65;;
10343;SDS011;5217;43.960;10.954;2024-01-30T13:33:07;8.60;;;7.10;;
10343;SDS011;5217;43.960;10.954;2024-01-30T13:35:36;8.50;;;7.13;;
10343;SDS011;5217;43.960;10.954;2024-01-30T13:38:04;8.48;;;7.57;;
10343;SDS011;5217;43.960;10.954;2024-01-30T13:40:32;7.82;;;7.00;;
10343;SDS011;5217;43.960;10.954;2024-01-30T13:43:01;7.07;;;6.40;;
10343;SDS011;5217;43.960;10.954;2024-01-30T13:45:31;7.40;;;6.35;;
10343;SDS011;5217;43.960;10.954;2024-01-30T13:48:00;7.47;;;6.63;;
10343;SDS011;5217;43.960;10.954;2024-01-30T13:50:29;6.47;;;5.85;;
10343;SDS011;5217;43.960;10.954;2024-01-30T13:52:59;6.85;;;6.13;;
10343;SDS011;5217;43.960;10.954;2024-01-30T13:55:28;6.05;;;5.45;;
10343;SDS011;5217;43.960;10.954;2024-01-30T13:57:57;7.38;;;5.32;;
10343;SDS011;5217;43.960;10.954;2024-01-30T14:00:26;6.45;;;5.72;;
10343;SDS011;5217;43.960;10.954;2024-01-30T14:02:56;6.53;;;5.70;;
10343;SDS011;5217;43.960;10.954;2024-01-30T14:05:26;6.30;;;5.70;;
10343;SDS011;5217;43.960;10.954;2024-01-30T14:07:55;6.88;;;6.18;;
10343;SDS011;5217;43.960;10.954;2024-01-30T14:10:24;8.50;;;7.32;;
10343;SDS011;5217;43.960;10.954;2024-01-30T14:12:53;16.83;;;14.38;;
10343;SDS011;5217;43.960;10.954;2024-01-30T14:15:23;13.15;;;11.82;;
10343;SDS011;5217;43.960;10.954;2024-01-30T14:17:56;10.40;;;9.32;;
10343;SDS011;5217;43.960;10.954;2024-01-30T14:20:26;10.07;;;7.57;;
10343;SDS011;5217;43.960;10.954;2024-01-30T14:22:55;8.45;;;7.18;;
10343;SDS011;5217;43.960;10.954;2024-01-30T14:25:24;8.20;;;7.15;;
10343;SDS011;5217;43.960;10.954;2024-01-30T14:27:52;9.32;;;8.13;;
10343;SDS011;5217;43.960;10.954;2024-01-30T14:30:21;10.02;;;8.50;;
10343;SDS011;5217;43.960;10.954;2024-01-30T14:32:50;10.15;;;8.60;;
10343;SDS011;5217;43.960;10.954;2024-01-30T14:35:20;12.77;;;11.43;;
10343;SDS011;5217;43.960;10.954;2024-01-30T14:37:48;12.13;;;10.73;;
10343;SDS011;5217;43.960;10.954;2024-01-30T14:40:17;11.32;;;10.13;;
10343;SDS011;5217;43.960;10.954;2024-01-30T14:42:46;11.27;;;10.18;;
10343;SDS011;5217;43.960;10.954;2024-01-30T14:45:15;11.30;;;9.20;;
10343;SDS011;5217;43.960;10.954;2024-01-30T14:47:44;9.80;;;8.80;;
10343;SDS011;5217;43.960;10.954;2024-01-30T14:50:13;10.38;;;7.95;;